Portada
METAR-TAF:

METAR-TAF

Aeropuertos :

Funchal, Madeira, Portugal

Aeropuerto de Madeira

latitud: 32-41-52N, longitud: 016-46-28W, altitud: 59 m

Observación

El informe se hizo hace 16 minutos, a las 00:00 UTC
Viento 6 kt del norte, variando entre norte-noroeste y noreste
Temperatura 21°C
Humedad 78%
Presión 1022 hPa
Visibilidad 10 km o más
Escasas nubes a una altura de 1600 ft

METAR: LPMA 260000Z 01006KT 340V050 9999 FEW016 21/17 Q1022

Hora: 01:16 (00:16 UTC)

Pronóstico

El informe se hizo hace 1 hora y 16 minutos, a las 23:00 UTC
Pronóstico válido del 26 a las 00 UTC al 26 a las 24 UTC
Viento 5 kt con dirección variable
Visibilidad 10 km o más
Nubes dispersas a una altura de 1600 ft

TAF: LPMA 252300Z 2600/2624 VRB05KT 9999 SCT016

Observaciones y pronósticos meteorológicos de más de 4000 aeropuertos (mensajes METAR y TAF).

Los puntos amarillos y rojos representan las estaciones disponibles.

Ponga el ratón en el punto deseado para ver el nombre de la estación.

Haga clic para ver las observaciones y los pronósticos meteorológicos.

Para cambiar el mapa : haga clic en los botones verdes con una cruz de color negro para hacer un zoom, en el botón verde con un guión para alejar o en las flechas verdes para mapas adyacentes.


METAR-TAF: